sensor_id;sensor_type;location;lat;lon;timestamp;pressure;altitude;pressure_sealevel;temperature;humidity
53484;BME280;75581;50.088;19.966;2024-02-15T00:00:08;99744.80;;;5.72;61.78
53484;BME280;75581;50.088;19.966;2024-02-15T00:02:57;99745.11;;;5.71;61.89
53484;BME280;75581;50.088;19.966;2024-02-15T00:05:44;99748.58;;;5.69;61.83
53484;BME280;75581;50.088;19.966;2024-02-15T00:08:14;99751.30;;;5.68;61.83
53484;BME280;75581;50.088;19.966;2024-02-15T00:10:43;99751.37;;;5.66;61.79
53484;BME280;75581;50.088;19.966;2024-02-15T00:13:14;99751.08;;;5.66;61.91
53484;BME280;75581;50.088;19.966;2024-02-15T00:15:45;99758.30;;;5.63;61.94
53484;BME280;75581;50.088;19.966;2024-02-15T00:18:16;99757.74;;;5.62;61.95
53484;BME280;75581;50.088;19.966;2024-02-15T00:20:46;99757.27;;;5.60;62.00
53484;BME280;75581;50.088;19.966;2024-02-15T00:23:14;99755.89;;;5.58;62.01
53484;BME280;75581;50.088;19.966;2024-02-15T00:25:45;99752.83;;;5.57;62.13
53484;BME280;75581;50.088;19.966;2024-02-15T00:28:14;99755.89;;;5.55;62.14
53484;BME280;75581;50.088;19.966;2024-02-15T00:30:42;99752.04;;;5.52;62.09
53484;BME280;75581;50.088;19.966;2024-02-15T00:33:11;99755.52;;;5.49;62.15
53484;BME280;75581;50.088;19.966;2024-02-15T00:35:41;99753.98;;;5.47;62.33
53484;BME280;75581;50.088;19.966;2024-02-15T00:38:10;99751.84;;;5.46;62.40
53484;BME280;75581;50.088;19.966;2024-02-15T00:40:39;99752.31;;;5.44;62.49
53484;BME280;75581;50.088;19.966;2024-02-15T00:43:08;99751.21;;;5.41;62.50
53484;BME280;75581;50.088;19.966;2024-02-15T00:45:37;99753.77;;;5.36;62.61
53484;BME280;75581;50.088;19.966;2024-02-15T00:48:06;99746.14;;;5.32;62.75
53484;BME280;75581;50.088;19.966;2024-02-15T00:50:35;99750.80;;;5.31;62.87
53484;BME280;75581;50.088;19.966;2024-02-15T00:53:04;99749.83;;;5.29;63.05
53484;BME280;75581;50.088;19.966;2024-02-15T00:55:33;99752.31;;;5.27;63.01
53484;BME280;75581;50.088;19.966;2024-02-15T00:58:02;99752.08;;;5.24;63.29
53484;BME280;75581;50.088;19.966;2024-02-15T01:00:31;99756.27;;;5.24;63.39
53484;BME280;75581;50.088;19.966;2024-02-15T01:03:00;99756.89;;;5.23;63.54
53484;BME280;75581;50.088;19.966;2024-02-15T01:05:29;99760.09;;;5.24;63.72
53484;BME280;75581;50.088;19.966;2024-02-15T01:07:59;99760.63;;;5.26;63.83
53484;BME280;75581;50.088;19.966;2024-02-15T01:10:28;99755.64;;;5.27;63.92
53484;BME280;75581;50.088;19.966;2024-02-15T01:12:57;99750.11;;;5.28;64.05
53484;BME280;75581;50.088;19.966;2024-02-15T01:15:26;99750.88;;;5.32;64.22
53484;BME280;75581;50.088;19.966;2024-02-15T01:17:55;99751.50;;;5.32;64.30
53484;BME280;75581;50.088;19.966;2024-02-15T01:20:24;99752.09;;;5.34;64.42
53484;BME280;75581;50.088;19.966;2024-02-15T01:22:53;99752.94;;;5.36;64.45
53484;BME280;75581;50.088;19.966;2024-02-15T01:25:22;99753.84;;;5.37;64.48
53484;BME280;75581;50.088;19.966;2024-02-15T01:27:51;99751.33;;;5.37;64.48
53484;BME280;75581;50.088;19.966;2024-02-15T01:30:20;99754.50;;;5.37;64.52
53484;BME280;75581;50.088;19.966;2024-02-15T01:32:48;99758.98;;;5.37;64.44
53484;BME280;75581;50.088;19.966;2024-02-15T01:35:17;99761.79;;;5.38;64.47
53484;BME280;75581;50.088;19.966;2024-02-15T01:37:47;99761.66;;;5.39;64.43
53484;BME280;75581;50.088;19.966;2024-02-15T01:40:16;99759.52;;;5.40;64.32
53484;BME280;75581;50.088;19.966;2024-02-15T01:42:45;99758.19;;;5.41;64.38
53484;BME280;75581;50.088;19.966;2024-02-15T01:45:14;99757.27;;;5.43;64.44
53484;BME280;75581;50.088;19.966;2024-02-15T01:47:43;99760.34;;;5.44;64.35
53484;BME280;75581;50.088;19.966;2024-02-15T01:50:13;99757.86;;;5.45;64.40
53484;BME280;75581;50.088;19.966;2024-02-15T01:52:43;99755.04;;;5.48;64.42
53484;BME280;75581;50.088;19.966;2024-02-15T01:55:18;99763.04;;;5.51;64.37
53484;BME280;75581;50.088;19.966;2024-02-15T01:57:48;99759.80;;;5.56;64.41
53484;BME280;75581;50.088;19.966;2024-02-15T02:00:18;99763.73;;;5.60;64.31
53484;BME280;75581;50.088;19.966;2024-02-15T02:02:48;99761.24;;;5.62;64.14
53484;BME280;75581;50.088;19.966;2024-02-15T02:05:17;99764.93;;;5.64;63.99
53484;BME280;75581;50.088;19.966;2024-02-15T02:07:46;99767.23;;;5.65;63.93
53484;BME280;75581;50.088;19.966;2024-02-15T02:10:15;99763.56;;;5.66;63.88
53484;BME280;75581;50.088;19.966;2024-02-15T02:12:44;99761.88;;;5.66;63.82
53484;BME280;75581;50.088;19.966;2024-02-15T02:15:13;99758.89;;;5.67;63.86
53484;BME280;75581;50.088;19.966;2024-02-15T02:17:50;99756.66;;;5.68;63.68
53484;BME280;75581;50.088;19.966;2024-02-15T02:20:23;99756.10;;;5.67;63.53
53484;BME280;75581;50.088;19.966;2024-02-15T02:22:53;99762.40;;;5.65;63.43
53484;BME280;75581;50.088;19.966;2024-02-15T02:25:25;99765.71;;;5.63;63.48
53484;BME280;75581;50.088;19.966;2024-02-15T02:27:56;99759.69;;;5.60;63.48
53484;BME280;75581;50.088;19.966;2024-02-15T02:30:24;99755.91;;;5.59;63.51
53484;BME280;75581;50.088;19.966;2024-02-15T02:32:58;99752.41;;;5.59;63.54
53484;BME280;75581;50.088;19.966;2024-02-15T02:35:28;99745.05;;;5.58;63.55
53484;BME280;75581;50.088;19.966;2024-02-15T02:37:58;99742.73;;;5.58;63.50
53484;BME280;75581;50.088;19.966;2024-02-15T02:40:27;99743.08;;;5.57;63.50
53484;BME280;75581;50.088;19.966;2024-02-15T02:42:57;99742.52;;;5.54;63.48
53484;BME280;75581;50.088;19.966;2024-02-15T02:45:27;99742.93;;;5.54;63.62
53484;BME280;75581;50.088;19.966;2024-02-15T02:47:56;99745.80;;;5.56;63.59
53484;BME280;75581;50.088;19.966;2024-02-15T02:50:25;99745.48;;;5.59;63.62
53484;BME280;75581;50.088;19.966;2024-02-15T02:52:54;99747.00;;;5.61;63.60
53484;BME280;75581;50.088;19.966;2024-02-15T02:55:23;99743.73;;;5.62;63.65
53484;BME280;75581;50.088;19.966;2024-02-15T02:57:52;99741.09;;;5.63;63.53
53484;BME280;75581;50.088;19.966;2024-02-15T03:00:23;99744.08;;;5.65;63.53
53484;BME280;75581;50.088;19.966;2024-02-15T03:02:52;99744.45;;;5.66;63.61
53484;BME280;75581;50.088;19.966;2024-02-15T03:05:25;99742.70;;;5.67;63.60
53484;BME280;75581;50.088;19.966;2024-02-15T03:07:54;99744.17;;;5.68;63.63
53484;BME280;75581;50.088;19.966;2024-02-15T03:10:23;99739.89;;;5.68;63.65
53484;BME280;75581;50.088;19.966;2024-02-15T03:12:53;99741.73;;;5.66;63.61
53484;BME280;75581;50.088;19.966;2024-02-15T03:15:21;99741.16;;;5.65;63.58
53484;BME280;75581;50.088;19.966;2024-02-15T03:17:51;99744.82;;;5.66;63.66
53484;BME280;75581;50.088;19.966;2024-02-15T03:20:20;99745.66;;;5.67;63.83
53484;BME280;75581;50.088;19.966;2024-02-15T03:22:54;99740.59;;;5.68;63.79
53484;BME280;75581;50.088;19.966;2024-02-15T03:25:24;99744.88;;;5.68;63.72
53484;BME280;75581;50.088;19.966;2024-02-15T03:27:58;99743.31;;;5.67;63.77
53484;BME280;75581;50.088;19.966;2024-02-15T03:30:28;99743.15;;;5.69;63.87
53484;BME280;75581;50.088;19.966;2024-02-15T03:33:00;99744.70;;;5.70;63.98
53484;BME280;75581;50.088;19.966;2024-02-15T03:35:32;99739.98;;;5.72;64.01
53484;BME280;75581;50.088;19.966;2024-02-15T03:38:01;99741.34;;;5.74;64.02
53484;BME280;75581;50.088;19.966;2024-02-15T03:40:29;99741.51;;;5.76;63.98
53484;BME280;75581;50.088;19.966;2024-02-15T03:42:59;99739.45;;;5.77;63.94
53484;BME280;75581;50.088;19.966;2024-02-15T03:45:28;99739.48;;;5.80;63.97
53484;BME280;75581;50.088;19.966;2024-02-15T03:47:57;99740.46;;;5.84;63.94
53484;BME280;75581;50.088;19.966;2024-02-15T03:50:26;99739.09;;;5.86;63.94
53484;BME280;75581;50.088;19.966;2024-02-15T03:52:55;99741.29;;;5.88;63.90
53484;BME280;75581;50.088;19.966;2024-02-15T03:55:24;99741.05;;;5.91;63.84
53484;BME280;75581;50.088;19.966;2024-02-15T03:57:54;99743.39;;;5.93;63.84
53484;BME280;75581;50.088;19.966;2024-02-15T04:00:24;99743.67;;;5.95;63.77
53484;BME280;75581;50.088;19.966;2024-02-15T04:02:54;99743.66;;;5.98;63.71
53484;BME280;75581;50.088;19.966;2024-02-15T04:05:25;99743.66;;;6.00;63.63
53484;BME280;75581;50.088;19.966;2024-02-15T04:07:54;99748.96;;;6.00;63.63
53484;BME280;75581;50.088;19.966;2024-02-15T04:10:22;99746.85;;;6.01;63.65
53484;BME280;75581;50.088;19.966;2024-02-15T04:12:52;99741.29;;;6.01;63.60
53484;BME280;75581;50.088;19.966;2024-02-15T04:15:22;99740.91;;;6.01;63.56
53484;BME280;75581;50.088;19.966;2024-02-15T04:17:51;99737.08;;;6.02;63.52
53484;BME280;75581;50.088;19.966;2024-02-15T04:20:25;99735.39;;;6.01;63.53
53484;BME280;75581;50.088;19.966;2024-02-15T04:22:54;99734.91;;;6.01;63.56
53484;BME280;75581;50.088;19.966;2024-02-15T04:25:25;99739.54;;;5.99;63.49
53484;BME280;75581;50.088;19.966;2024-02-15T04:27:56;99742.13;;;5.99;63.57
53484;BME280;75581;50.088;19.966;2024-02-15T04:30:28;99741.65;;;5.97;63.52
53484;BME280;75581;50.088;19.966;2024-02-15T04:32:56;99743.87;;;5.98;63.61
53484;BME280;75581;50.088;19.966;2024-02-15T04:35:25;99742.13;;;5.99;63.70
53484;BME280;75581;50.088;19.966;2024-02-15T04:38:25;99740.05;;;6.01;63.68
53484;BME280;75581;50.088;19.966;2024-02-15T04:40:54;99741.91;;;6.04;63.63
53484;BME280;75581;50.088;19.966;2024-02-15T04:43:23;99743.91;;;6.06;63.60
53484;BME280;75581;50.088;19.966;2024-02-15T04:45:54;99739.48;;;6.08;63.54
53484;BME280;75581;50.088;19.966;2024-02-15T04:48:22;99738.64;;;6.10;63.62
53484;BME280;75581;50.088;19.966;2024-02-15T04:50:53;99739.80;;;6.14;63.63
53484;BME280;75581;50.088;19.966;2024-02-15T04:56:42;99738.52;;;6.19;63.52
53484;BME280;75581;50.088;19.966;2024-02-15T04:59:11;99744.47;;;6.21;63.63
53484;BME280;75581;50.088;19.966;2024-02-15T05:01:44;99744.79;;;6.23;63.75
53484;BME280;75581;50.088;19.966;2024-02-15T05:04:13;99745.35;;;6.23;63.66
53484;BME280;75581;50.088;19.966;2024-02-15T05:06:42;99753.34;;;6.24;63.67
53484;BME280;75581;50.088;19.966;2024-02-15T05:09:11;99753.29;;;6.24;63.64
53484;BME280;75581;50.088;19.966;2024-02-15T05:11:41;99753.84;;;6.24;63.73
53484;BME280;75581;50.088;19.966;2024-02-15T05:14:15;99754.90;;;6.24;63.63
53484;BME280;75581;50.088;19.966;2024-02-15T05:16:48;99759.77;;;6.25;63.73
53484;BME280;75581;50.088;19.966;2024-02-15T05:19:17;99762.31;;;6.25;63.78
53484;BME280;75581;50.088;19.966;2024-02-15T05:21:47;99764.86;;;6.23;63.84
53484;BME280;75581;50.088;19.966;2024-02-15T05:24:16;99770.77;;;6.22;63.86
53484;BME280;75581;50.088;19.966;2024-02-15T05:26:46;99771.09;;;6.22;63.90
53484;BME280;75581;50.088;19.966;2024-02-15T05:29:16;99772.33;;;6.22;63.87
53484;BME280;75581;50.088;19.966;2024-02-15T05:31:45;99771.02;;;6.23;63.97
53484;BME280;75581;50.088;19.966;2024-02-15T05:34:14;99772.84;;;6.23;64.03
53484;BME280;75581;50.088;19.966;2024-02-15T05:36:45;99769.11;;;6.26;64.18
53484;BME280;75581;50.088;19.966;2024-02-15T05:39:16;99773.55;;;6.27;64.12
53484;BME280;75581;50.088;19.966;2024-02-15T05:41:47;99774.52;;;6.29;64.20
53484;BME280;75581;50.088;19.966;2024-02-15T05:44:16;99775.56;;;6.32;64.23
53484;BME280;75581;50.088;19.966;2024-02-15T05:46:49;99776.36;;;6.34;64.32
53484;BME280;75581;50.088;19.966;2024-02-15T05:49:17;99772.48;;;6.35;64.29
53484;BME280;75581;50.088;19.966;2024-02-15T05:51:47;99772.52;;;6.36;64.29
53484;BME280;75581;50.088;19.966;2024-02-15T05:54:16;99771.20;;;6.39;64.20
53484;BME280;75581;50.088;19.966;2024-02-15T05:56:47;99768.72;;;6.40;64.38
53484;BME280;75581;50.088;19.966;2024-02-15T05:59:21;99777.04;;;6.40;64.24
53484;BME280;75581;50.088;19.966;2024-02-15T06:01:49;99772.88;;;6.41;64.24
53484;BME280;75581;50.088;19.966;2024-02-15T06:04:18;99776.83;;;6.41;64.19
53484;BME280;75581;50.088;19.966;2024-02-15T06:06:47;99777.46;;;6.40;64.13
53484;BME280;75581;50.088;19.966;2024-02-15T06:09:19;99777.76;;;6.39;64.30
53484;BME280;75581;50.088;19.966;2024-02-15T06:11:50;99780.44;;;6.39;64.30
53484;BME280;75581;50.088;19.966;2024-02-15T06:14:24;99779.40;;;6.39;64.23
53484;BME280;75581;50.088;19.966;2024-02-15T06:16:53;99778.77;;;6.38;64.28
53484;BME280;75581;50.088;19.966;2024-02-15T06:19:23;99776.23;;;6.40;64.31
53484;BME280;75581;50.088;19.966;2024-02-15T06:21:53;99781.20;;;6.41;64.38
53484;BME280;75581;50.088;19.966;2024-02-15T06:24:22;99780.18;;;6.43;64.38
53484;BME280;75581;50.088;19.966;2024-02-15T06:26:52;99782.88;;;6.46;64.41
53484;BME280;75581;50.088;19.966;2024-02-15T06:29:28;99786.54;;;6.48;64.39
53484;BME280;75581;50.088;19.966;2024-02-15T06:32:15;99787.67;;;6.50;64.44
53484;BME280;75581;50.088;19.966;2024-02-15T06:35:03;99787.93;;;6.52;64.33
53484;BME280;75581;50.088;19.966;2024-02-15T06:37:50;99792.04;;;6.54;64.16
53484;BME280;75581;50.088;19.966;2024-02-15T06:40:38;99795.99;;;6.58;64.10
53484;BME280;75581;50.088;19.966;2024-02-15T06:43:07;99793.98;;;6.62;64.16
53484;BME280;75581;50.088;19.966;2024-02-15T06:45:36;99799.86;;;6.67;64.15
53484;BME280;75581;50.088;19.966;2024-02-15T06:48:06;99803.50;;;6.73;64.37
53484;BME280;75581;50.088;19.966;2024-02-15T06:50:36;99802.83;;;6.78;64.32
53484;BME280;75581;50.088;19.966;2024-02-15T06:53:06;99804.89;;;6.83;64.17
53484;BME280;75581;50.088;19.966;2024-02-15T06:55:34;99800.83;;;6.90;64.08
53484;BME280;75581;50.088;19.966;2024-02-15T06:58:05;99809.62;;;6.95;64.10
53484;BME280;75581;50.088;19.966;2024-02-15T07:00:34;99807.50;;;7.00;64.10
53484;BME280;75581;50.088;19.966;2024-02-15T07:03:03;99803.02;;;7.05;64.18
53484;BME280;75581;50.088;19.966;2024-02-15T07:05:33;99804.79;;;7.09;64.06
53484;BME280;75581;50.088;19.966;2024-02-15T07:08:01;99808.60;;;7.12;63.88
53484;BME280;75581;50.088;19.966;2024-02-15T07:10:30;99810.65;;;7.15;63.91
53484;BME280;75581;50.088;19.966;2024-02-15T07:13:00;99813.14;;;7.18;63.86
53484;BME280;75581;50.088;19.966;2024-02-15T07:15:29;99810.63;;;7.20;63.82
53484;BME280;75581;50.088;19.966;2024-02-15T07:18:00;99808.55;;;7.22;63.68
53484;BME280;75581;50.088;19.966;2024-02-15T07:20:29;99809.05;;;7.25;63.57
53484;BME280;75581;50.088;19.966;2024-02-15T07:22:59;99812.55;;;7.28;63.66
53484;BME280;75581;50.088;19.966;2024-02-15T07:25:28;99812.44;;;7.34;63.63
53484;BME280;75581;50.088;19.966;2024-02-15T07:27:57;99812.48;;;7.37;63.53
53484;BME280;75581;50.088;19.966;2024-02-15T07:30:26;99813.66;;;7.41;63.29
53484;BME280;75581;50.088;19.966;2024-02-15T07:32:55;99815.14;;;7.47;63.24
53484;BME280;75581;50.088;19.966;2024-02-15T07:35:24;99818.02;;;7.54;63.10
53484;BME280;75581;50.088;19.966;2024-02-15T07:37:54;99821.70;;;7.62;63.06
53484;BME280;75581;50.088;19.966;2024-02-15T07:40:29;99817.84;;;7.71;62.92
53484;BME280;75581;50.088;19.966;2024-02-15T07:42:59;99817.05;;;7.80;62.90
53484;BME280;75581;50.088;19.966;2024-02-15T07:45:28;99813.97;;;7.89;62.76
53484;BME280;75581;50.088;19.966;2024-02-15T07:47:57;99813.96;;;8.00;62.79
53484;BME280;75581;50.088;19.966;2024-02-15T07:50:26;99809.20;;;8.10;62.56
53484;BME280;75581;50.088;19.966;2024-02-15T07:52:55;99808.61;;;8.20;62.52
53484;BME280;75581;50.088;19.966;2024-02-15T07:55:24;99806.24;;;8.30;62.41
53484;BME280;75581;50.088;19.966;2024-02-15T07:57:53;99803.14;;;8.41;62.20
53484;BME280;75581;50.088;19.966;2024-02-15T08:00:24;99804.43;;;8.53;62.07
53484;BME280;75581;50.088;19.966;2024-02-15T08:02:55;99805.25;;;8.64;61.87
53484;BME280;75581;50.088;19.966;2024-02-15T08:05:25;99801.52;;;8.73;61.65
53484;BME280;75581;50.088;19.966;2024-02-15T08:07:55;99798.02;;;8.81;61.42
53484;BME280;75581;50.088;19.966;2024-02-15T08:10:26;99803.74;;;8.87;61.20
53484;BME280;75581;50.088;19.966;2024-02-15T08:12:57;99806.17;;;8.93;61.06
53484;BME280;75581;50.088;19.966;2024-02-15T08:15:26;99809.31;;;8.97;60.85
53484;BME280;75581;50.088;19.966;2024-02-15T08:17:58;99811.33;;;9.00;60.77
53484;BME280;75581;50.088;19.966;2024-02-15T08:20:27;99810.89;;;9.03;60.67
53484;BME280;75581;50.088;19.966;2024-02-15T08:22:59;99808.34;;;9.04;60.64
53484;BME280;75581;50.088;19.966;2024-02-15T08:25:29;99815.34;;;9.04;60.34
53484;BME280;75581;50.088;19.966;2024-02-15T08:27:58;99813.13;;;9.02;60.38
53484;BME280;75581;50.088;19.966;2024-02-15T08:30:34;99811.38;;;9.01;60.39
53484;BME280;75581;50.088;19.966;2024-02-15T08:33:03;99816.58;;;9.02;60.43
53484;BME280;75581;50.088;19.966;2024-02-15T08:35:33;99814.08;;;9.05;60.49
53484;BME280;75581;50.088;19.966;2024-02-15T08:38:02;99815.10;;;9.09;60.35
53484;BME280;75581;50.088;19.966;2024-02-15T08:40:33;99813.30;;;9.13;60.26
53484;BME280;75581;50.088;19.966;2024-02-15T08:43:03;99813.15;;;9.16;60.16
53484;BME280;75581;50.088;19.966;2024-02-15T08:45:32;99818.27;;;9.17;59.97
53484;BME280;75581;50.088;19.966;2024-02-15T08:48:01;99814.83;;;9.19;60.08
53484;BME280;75581;50.088;19.966;2024-02-15T08:50:33;99814.36;;;9.23;60.18
53484;BME280;75581;50.088;19.966;2024-02-15T08:53:02;99818.17;;;9.25;59.95
53484;BME280;75581;50.088;19.966;2024-02-15T08:55:37;99818.48;;;9.28;59.86
53484;BME280;75581;50.088;19.966;2024-02-15T08:58:06;99822.29;;;9.30;59.75
53484;BME280;75581;50.088;19.966;2024-02-15T09:00:35;99821.89;;;9.31;59.89
53484;BME280;75581;50.088;19.966;2024-02-15T09:03:04;99818.75;;;9.33;59.80
53484;BME280;75581;50.088;19.966;2024-02-15T09:05:36;99817.70;;;9.35;59.67
53484;BME280;75581;50.088;19.966;2024-02-15T09:08:05;99820.59;;;9.37;59.65
53484;BME280;75581;50.088;19.966;2024-02-15T09:10:34;99820.99;;;9.41;59.68
53484;BME280;75581;50.088;19.966;2024-02-15T09:13:05;99819.35;;;9.46;59.64
53484;BME280;75581;50.088;19.966;2024-02-15T09:15:35;99823.12;;;9.52;59.55
53484;BME280;75581;50.088;19.966;2024-02-15T09:18:04;99818.91;;;9.57;59.64
53484;BME280;75581;50.088;19.966;2024-02-15T09:20:34;99823.47;;;9.62;59.43
53484;BME280;75581;50.088;19.966;2024-02-15T09:23:06;99822.71;;;9.65;59.39
53484;BME280;75581;50.088;19.966;2024-02-15T09:25:39;99823.77;;;9.68;59.28
53484;BME280;75581;50.088;19.966;2024-02-15T09:28:08;99825.73;;;9.71;59.33
53484;BME280;75581;50.088;19.966;2024-02-15T09:30:37;99823.53;;;9.75;59.36
53484;BME280;75581;50.088;19.966;2024-02-15T09:33:06;99822.10;;;9.77;59.20
53484;BME280;75581;50.088;19.966;2024-02-15T09:35:35;99826.26;;;9.77;59.15
53484;BME280;75581;50.088;19.966;2024-02-15T09:38:04;99825.88;;;9.77;59.15
53484;BME280;75581;50.088;19.966;2024-02-15T09:40:34;99825.75;;;9.79;59.10
53484;BME280;75581;50.088;19.966;2024-02-15T09:43:04;99826.25;;;9.83;59.27
53484;BME280;75581;50.088;19.966;2024-02-15T09:45:33;99822.23;;;9.84;58.93
53484;BME280;75581;50.088;19.966;2024-02-15T09:48:06;99823.31;;;9.88;59.06
53484;BME280;75581;50.088;19.966;2024-02-15T09:50:39;99824.40;;;9.92;59.07
53484;BME280;75581;50.088;19.966;2024-02-15T09:53:12;99823.96;;;9.95;58.84
53484;BME280;75581;50.088;19.966;2024-02-15T09:55:42;99821.02;;;9.98;58.84
53484;BME280;75581;50.088;19.966;2024-02-15T09:58:12;99818.91;;;10.03;58.73
53484;BME280;75581;50.088;19.966;2024-02-15T10:00:41;99813.80;;;10.10;58.92
53484;BME280;75581;50.088;19.966;2024-02-15T10:03:16;99813.98;;;10.18;58.80
53484;BME280;75581;50.088;19.966;2024-02-15T10:05:50;99813.85;;;10.23;58.66
53484;BME280;75581;50.088;19.966;2024-02-15T10:08:20;99809.89;;;10.29;58.48
53484;BME280;75581;50.088;19.966;2024-02-15T10:11:05;99808.55;;;10.40;58.81
53484;BME280;75581;50.088;19.966;2024-02-15T10:13:36;99807.39;;;10.52;58.67
53484;BME280;75581;50.088;19.966;2024-02-15T10:16:18;99804.42;;;10.64;58.43
53484;BME280;75581;50.088;19.966;2024-02-15T10:18:47;99802.73;;;10.81;58.38
53484;BME280;75581;50.088;19.966;2024-02-15T10:21:27;99800.92;;;10.97;58.20
53484;BME280;75581;50.088;19.966;2024-02-15T10:24:06;99791.15;;;11.10;58.05
53484;BME280;75581;50.088;19.966;2024-02-15T10:26:36;99791.21;;;11.26;57.65
53484;BME280;75581;50.088;19.966;2024-02-15T10:29:10;99791.41;;;11.34;57.25
53484;BME280;75581;50.088;19.966;2024-02-15T10:31:40;99784.48;;;11.44;57.18
53484;BME280;75581;50.088;19.966;2024-02-15T10:34:20;99782.47;;;11.60;57.23
53484;BME280;75581;50.088;19.966;2024-02-15T10:37:13;99784.06;;;11.76;56.91
53484;BME280;75581;50.088;19.966;2024-02-15T10:39:42;99782.63;;;11.91;56.56
53484;BME280;75581;50.088;19.966;2024-02-15T10:42:11;99782.35;;;12.09;56.53
53484;BME280;75581;50.088;19.966;2024-02-15T10:44:42;99782.05;;;12.30;56.36
53484;BME280;75581;50.088;19.966;2024-02-15T10:47:12;99777.77;;;12.49;56.06
53484;BME280;75581;50.088;19.966;2024-02-15T10:49:41;99774.67;;;12.55;55.22
53484;BME280;75581;50.088;19.966;2024-02-15T10:52:15;99767.85;;;12.56;55.06
53484;BME280;75581;50.088;19.966;2024-02-15T10:55:03;99764.06;;;12.54;54.79
53484;BME280;75581;50.088;19.966;2024-02-15T10:57:33;99761.31;;;12.48;54.56
53484;BME280;75581;50.088;19.966;2024-02-15T11:00:07;99760.65;;;12.45;54.65
53484;BME280;75581;50.088;19.966;2024-02-15T11:03:10;99759.08;;;12.43;54.64
53484;BME280;75581;50.088;19.966;2024-02-15T11:05:39;99757.98;;;12.41;54.65
53484;BME280;75581;50.088;19.966;2024-02-15T11:08:10;99756.23;;;12.37;54.56
53484;BME280;75581;50.088;19.966;2024-02-15T11:10:40;99751.94;;;12.34;54.72
53484;BME280;75581;50.088;19.966;2024-02-15T11:13:13;99751.98;;;12.33;54.74
53484;BME280;75581;50.088;19.966;2024-02-15T11:15:46;99753.33;;;12.31;54.75
53484;BME280;75581;50.088;19.966;2024-02-15T11:18:49;99752.21;;;12.27;54.73
53484;BME280;75581;50.088;19.966;2024-02-15T11:24:28;99745.01;;;12.15;54.79
53484;BME280;75581;50.088;19.966;2024-02-15T11:26:59;99740.05;;;12.12;54.96
53484;BME280;75581;50.088;19.966;2024-02-15T11:32:49;99736.89;;;11.97;54.77
53484;BME280;75581;50.088;19.966;2024-02-15T11:35:26;99734.41;;;11.92;55.15
53484;BME280;75581;50.088;19.966;2024-02-15T11:37:58;99731.71;;;11.88;55.42
53484;BME280;75581;50.088;19.966;2024-02-15T11:46:15;99725.23;;;11.82;55.29
53484;BME280;75581;50.088;19.966;2024-02-15T11:48:50;99719.90;;;11.78;55.32
53484;BME280;75581;50.088;19.966;2024-02-15T11:54:19;99717.78;;;11.76;55.68
53484;BME280;75581;50.088;19.966;2024-02-15T11:59:54;99713.33;;;11.81;55.91
53484;BME280;75581;50.088;19.966;2024-02-15T12:03:03;99701.33;;;11.80;55.69
53484;BME280;75581;50.088;19.966;2024-02-15T12:05:51;99706.41;;;11.82;55.66
53484;BME280;75581;50.088;19.966;2024-02-15T12:08:41;99707.77;;;11.83;55.47
53484;BME280;75581;50.088;19.966;2024-02-15T12:11:31;99703.69;;;11.87;55.76
53484;BME280;75581;50.088;19.966;2024-02-15T12:14:19;99697.63;;;11.92;55.79
53484;BME280;75581;50.088;19.966;2024-02-15T12:17:09;99700.37;;;11.95;55.65
53484;BME280;75581;50.088;19.966;2024-02-15T12:19:59;99706.34;;;11.99;55.77
53484;BME280;75581;50.088;19.966;2024-02-15T12:22:35;99702.95;;;12.02;55.72
53484;BME280;75581;50.088;19.966;2024-02-15T12:25:07;99703.35;;;12.07;55.69
53484;BME280;75581;50.088;19.966;2024-02-15T12:27:46;99698.89;;;12.11;55.23
53484;BME280;75581;50.088;19.966;2024-02-15T12:30:16;99702.48;;;12.13;55.27
53484;BME280;75581;50.088;19.966;2024-02-15T12:32:50;99698.93;;;12.17;55.49
53484;BME280;75581;50.088;19.966;2024-02-15T12:35:21;99695.65;;;12.21;55.29
53484;BME280;75581;50.088;19.966;2024-02-15T12:38:02;99695.66;;;12.26;55.20
53484;BME280;75581;50.088;19.966;2024-02-15T12:40:38;99699.40;;;12.26;54.97
53484;BME280;75581;50.088;19.966;2024-02-15T12:43:11;99695.23;;;12.25;54.97
53484;BME280;75581;50.088;19.966;2024-02-15T12:45:41;99691.66;;;12.27;55.06
53484;BME280;75581;50.088;19.966;2024-02-15T12:48:10;99693.25;;;12.29;54.93
53484;BME280;75581;50.088;19.966;2024-02-15T12:50:40;99688.71;;;12.30;55.02
53484;BME280;75581;50.088;19.966;2024-02-15T12:53:09;99683.80;;;12.33;54.94
53484;BME280;75581;50.088;19.966;2024-02-15T12:55:39;99680.57;;;12.35;54.86
53484;BME280;75581;50.088;19.966;2024-02-15T12:58:13;99680.73;;;12.37;54.84
53484;BME280;75581;50.088;19.966;2024-02-15T13:00:44;99675.54;;;12.38;54.82
53484;BME280;75581;50.088;19.966;2024-02-15T13:03:13;99674.30;;;12.39;54.84
53484;BME280;75581;50.088;19.966;2024-02-15T13:05:44;99671.48;;;12.37;54.40
53484;BME280;75581;50.088;19.966;2024-02-15T13:08:14;99668.88;;;12.36;54.57
53484;BME280;75581;50.088;19.966;2024-02-15T13:10:46;99668.88;;;12.36;54.66
53484;BME280;75581;50.088;19.966;2024-02-15T13:13:15;99666.61;;;12.37;54.70
53484;BME280;75581;50.088;19.966;2024-02-15T13:15:45;99664.67;;;12.38;54.66
53484;BME280;75581;50.088;19.966;2024-02-15T13:18:20;99661.05;;;12.41;54.77
53484;BME280;75581;50.088;19.966;2024-02-15T13:20:50;99667.23;;;12.45;54.71
53484;BME280;75581;50.088;19.966;2024-02-15T13:23:21;99666.36;;;12.47;54.49
53484;BME280;75581;50.088;19.966;2024-02-15T13:25:52;99663.18;;;12.49;54.32
53484;BME280;75581;50.088;19.966;2024-02-15T13:28:21;99656.59;;;12.49;54.32
53484;BME280;75581;50.088;19.966;2024-02-15T13:30:50;99659.36;;;12.51;54.29
53484;BME280;75581;50.088;19.966;2024-02-15T13:33:22;99653.14;;;12.53;54.16
53484;BME280;75581;50.088;19.966;2024-02-15T13:35:52;99656.17;;;12.55;54.15
53484;BME280;75581;50.088;19.966;2024-02-15T13:38:21;99653.56;;;12.55;54.09
53484;BME280;75581;50.088;19.966;2024-02-15T13:40:53;99648.31;;;12.53;54.14